createdAt,value
2018-11-02T00:02:23.593Z,6.10
2018-11-02T00:04:52.184Z,6.00
2018-11-02T00:07:21.211Z,6.00
2018-11-02T00:09:50.199Z,6.00
2018-11-02T00:12:18.446Z,5.90
2018-11-02T00:14:46.494Z,5.90
2018-11-02T00:17:14.654Z,5.90
2018-11-02T00:19:43.031Z,5.90
2018-11-02T00:27:08.501Z,5.90
2018-11-02T00:29:36.723Z,5.80
2018-11-02T00:34:33.892Z,5.70
2018-11-02T00:37:02.535Z,5.60
2018-11-02T00:39:31.480Z,5.60
2018-11-02T00:41:59.630Z,5.60
2018-11-02T00:44:28.339Z,5.50
2018-11-02T00:46:56.535Z,5.50
2018-11-02T00:51:52.702Z,5.30
2018-11-02T00:59:17.797Z,4.90
2018-11-02T01:04:15.229Z,4.70
2018-11-02T01:06:43.508Z,4.50
2018-11-02T01:09:11.998Z,4.30
2018-11-02T01:14:08.489Z,4.00
2018-11-02T01:19:04.871Z,3.90
2018-11-02T01:24:01.078Z,3.90
2018-11-02T01:31:26.475Z,4.10
2018-11-02T01:33:55.288Z,4.20
2018-11-02T01:38:53.250Z,4.00
2018-11-02T01:41:22.409Z,4.00
2018-11-02T01:43:50.599Z,3.90
2018-11-02T01:46:19.361Z,4.00
2018-11-02T01:53:45.934Z,3.90
2018-11-02T01:56:14.097Z,3.90
2018-11-02T01:58:42.277Z,3.70
2018-11-02T02:03:39.109Z,3.50
2018-11-02T02:06:08.099Z,3.50
2018-11-02T02:11:04.693Z,3.60
2018-11-02T02:13:32.910Z,3.70
2018-11-02T02:18:30.379Z,4.00
2018-11-02T02:20:59.626Z,4.10
2018-11-02T02:28:24.117Z,4.20
2018-11-02T02:30:52.902Z,4.10
2018-11-02T02:33:21.936Z,4.00
2018-11-02T02:35:50.300Z,4.00
2018-11-02T02:40:46.957Z,3.90
2018-11-02T02:43:15.932Z,3.90
2018-11-02T02:45:44.095Z,3.90
2018-11-02T02:48:12.916Z,3.90
2018-11-02T03:00:33.449Z,4.10
2018-11-02T03:03:01.630Z,4.10
2018-11-02T03:10:26.529Z,4.00
2018-11-02T03:12:54.634Z,3.90
2018-11-02T03:17:51.411Z,4.00
2018-11-02T03:27:44.635Z,3.90
2018-11-02T03:30:12.987Z,4.00
2018-11-02T03:32:41.378Z,4.00
2018-11-02T03:35:10.070Z,3.80
2018-11-02T03:37:39.173Z,3.70
2018-11-02T03:40:09.154Z,3.80
2018-11-02T03:45:06.456Z,4.00
2018-11-02T03:47:35.548Z,4.00
2018-11-02T03:55:00.040Z,4.20
2018-11-02T03:57:28.202Z,4.20
2018-11-02T03:59:56.377Z,4.00
2018-11-02T04:02:24.550Z,3.90
2018-11-02T04:04:53.086Z,3.90
2018-11-02T04:07:22.218Z,3.80
2018-11-02T04:09:51.349Z,3.70
2018-11-02T04:12:19.489Z,3.60
2018-11-02T04:14:47.823Z,3.60
2018-11-02T04:17:16.246Z,3.70
2018-11-02T04:19:44.389Z,3.80
2018-11-02T04:22:12.549Z,3.80
2018-11-02T04:24:40.693Z,3.90
2018-11-02T04:27:09.774Z,4.00
2018-11-02T04:29:37.911Z,3.90
2018-11-02T04:32:06.093Z,3.90
2018-11-02T04:34:34.242Z,3.90
2018-11-02T04:37:02.926Z,4.00
2018-11-02T04:39:31.319Z,4.10
2018-11-02T04:46:56.488Z,4.30
2018-11-02T04:49:25.331Z,4.20
2018-11-02T04:59:19.113Z,4.10
2018-11-02T05:01:47.331Z,4.20
2018-11-02T05:11:41.168Z,4.30
2018-11-02T05:14:10.591Z,4.40
2018-11-02T05:16:38.770Z,4.50
2018-11-02T05:24:03.696Z,4.50
2018-11-02T05:26:32.812Z,4.50
2018-11-02T05:36:25.585Z,4.70
2018-11-02T05:38:53.733Z,4.80
2018-11-02T05:41:22.311Z,4.80
2018-11-02T05:43:51.010Z,4.80
2018-11-02T06:01:08.344Z,5.20
2018-11-02T06:03:36.479Z,5.30
2018-11-02T06:08:34.159Z,5.40
2018-11-02T06:23:22.947Z,5.60
2018-11-02T06:28:19.002Z,5.60
2018-11-02T06:30:47.844Z,5.70
2018-11-02T06:33:16.860Z,5.70
2018-11-02T06:35:45.329Z,5.70
2018-11-02T06:38:13.488Z,5.70
2018-11-02T06:43:10.080Z,5.80
2018-11-02T06:45:38.202Z,5.80
2018-11-02T06:48:06.996Z,5.80
2018-11-02T06:55:32.795Z,5.60
2018-11-02T06:58:01.287Z,5.50
2018-11-02T07:02:58.394Z,5.50
2018-11-02T07:05:27.722Z,5.50
2018-11-02T07:07:55.930Z,5.60
2018-11-02T07:12:53.078Z,5.50
2018-11-02T07:17:50.837Z,5.60
2018-11-02T07:32:40.470Z,5.70
2018-11-02T07:35:09.532Z,5.70
2018-11-02T07:37:38.120Z,5.80
2018-11-02T07:40:07.643Z,5.80
2018-11-02T07:42:35.825Z,5.90
2018-11-02T07:45:04.503Z,5.90
2018-11-02T07:50:01.170Z,6.00
2018-11-02T07:59:53.433Z,5.90
2018-11-02T08:02:21.580Z,6.00
2018-11-02T08:04:50.537Z,6.00
2018-11-02T08:07:19.015Z,6.10
2018-11-02T08:09:47.337Z,6.20
2018-11-02T08:12:15.444Z,6.20
2018-11-02T08:14:44.023Z,6.20
2018-11-02T08:17:12.942Z,6.10
2018-11-02T08:19:41.731Z,6.10
2018-11-02T08:22:10.517Z,6.00
2018-11-02T08:24:39.173Z,6.00
2018-11-02T08:32:04.549Z,6.00
2018-11-02T08:34:38.624Z,6.10
2018-11-02T08:39:35.788Z,6.30
2018-11-02T08:42:04.401Z,6.40
2018-11-02T08:44:32.546Z,6.40
2018-11-02T08:49:28.602Z,6.50
2018-11-02T08:51:56.982Z,6.60
2018-11-02T08:56:53.024Z,6.70
2018-11-02T09:01:49.059Z,6.80
2018-11-02T09:06:46.662Z,6.80
2018-11-02T09:09:15.066Z,6.80
2018-11-02T09:11:43.466Z,6.80
2018-11-02T09:14:12.366Z,6.80
2018-11-02T09:19:09.541Z,7.00
2018-11-02T09:21:37.639Z,7.00
2018-11-02T09:24:06.163Z,7.20
2018-11-02T09:26:34.278Z,7.30
2018-11-02T09:29:02.436Z,7.40
2018-11-02T09:31:30.556Z,7.50
2018-11-02T09:33:59.752Z,7.60
2018-11-02T09:36:27.869Z,7.70
2018-11-02T09:38:56.651Z,7.80
2018-11-02T09:41:24.842Z,7.90
2018-11-02T09:43:53.262Z,7.90
2018-11-02T09:46:21.478Z,7.80
2018-11-02T09:48:49.967Z,7.80
2018-11-02T09:51:18.175Z,7.90
2018-11-02T09:53:46.282Z,7.90
2018-11-02T09:56:14.481Z,7.90
2018-11-02T09:58:43.254Z,8.00
2018-11-02T10:01:11.870Z,8.00
2018-11-02T10:06:08.686Z,8.00
2018-11-02T10:16:02.022Z,8.00
2018-11-02T10:18:30.847Z,8.10
2018-11-02T10:28:24.772Z,8.50
2018-11-02T10:30:52.909Z,8.50
2018-11-02T10:33:21.048Z,8.50
2018-11-02T10:35:50.019Z,8.50
2018-11-02T10:43:17.646Z,8.30
2018-11-02T10:45:46.461Z,8.30
2018-11-02T10:48:14.810Z,8.30
2018-11-02T10:50:42.918Z,8.20
2018-11-02T10:53:11.042Z,8.20
2018-11-02T10:55:40.414Z,8.20
2018-11-02T10:58:09.565Z,8.20
2018-11-02T11:00:43.122Z,8.20
2018-11-02T11:03:12.054Z,8.20
2018-11-02T11:05:40.189Z,8.20
2018-11-02T11:08:08.321Z,8.30
2018-11-02T11:10:36.445Z,8.40
2018-11-02T11:13:05.596Z,8.50
2018-11-02T11:15:33.735Z,8.60
2018-11-02T11:18:01.910Z,8.70
2018-11-02T11:20:30.042Z,8.80
2018-11-02T11:22:58.393Z,8.90
2018-11-02T11:25:26.517Z,9.00
2018-11-02T11:27:55.001Z,9.10
2018-11-02T11:32:51.745Z,9.20
2018-11-02T11:35:20.065Z,9.30
2018-11-02T11:37:48.198Z,9.40
2018-11-02T11:40:17.876Z,9.50
2018-11-02T11:45:15.449Z,9.70
2018-11-02T11:47:44.358Z,9.90
2018-11-02T11:50:20.250Z,10.00
2018-11-02T11:55:17.697Z,10.20
2018-11-02T11:57:46.138Z,10.30
2018-11-02T12:00:16.276Z,10.40
2018-11-02T12:02:45.181Z,10.40
2018-11-02T12:05:15.573Z,10.40
2018-11-02T12:07:43.813Z,10.50
2018-11-02T12:10:15.759Z,10.50
2018-11-02T12:12:44.056Z,10.50
2018-11-02T12:15:14.845Z,10.50
2018-11-02T12:20:15.469Z,10.60
2018-11-02T12:22:44.257Z,10.60
2018-11-02T12:25:13.270Z,10.60
2018-11-02T12:30:12.916Z,10.70
2018-11-02T12:35:10.878Z,10.70
2018-11-02T12:37:39.793Z,10.70
2018-11-02T12:40:10.227Z,10.70
2018-11-02T12:47:35.853Z,10.70
2018-11-02T12:50:04.225Z,10.80
2018-11-02T12:52:32.329Z,10.80
2018-11-02T12:55:00.727Z,10.80
2018-11-02T12:57:29.744Z,10.80
2018-11-02T12:59:57.855Z,10.80
2018-11-02T13:04:53.895Z,10.70
2018-11-02T13:07:22.273Z,10.70
2018-11-02T13:09:50.582Z,10.70
2018-11-02T13:12:18.713Z,10.70
2018-11-02T13:17:14.881Z,10.70
2018-11-02T13:22:11.817Z,10.70
2018-11-02T13:27:08.917Z,10.80
2018-11-02T13:29:37.607Z,10.80
2018-11-02T13:37:02.335Z,10.70
2018-11-02T13:39:30.757Z,10.70
2018-11-02T13:41:59.358Z,10.70
2018-11-02T13:44:28.438Z,10.70
2018-11-02T13:46:56.805Z,10.70
2018-11-02T13:49:25.053Z,10.80
2018-11-02T13:54:21.652Z,10.80
2018-11-02T13:56:49.870Z,10.80
2018-11-02T13:59:18.018Z,10.80
2018-11-02T14:01:46.132Z,10.80
2018-11-02T14:04:14.811Z,10.80
2018-11-02T14:06:42.966Z,10.80
2018-11-02T14:09:11.753Z,10.80
2018-11-02T14:11:40.004Z,10.80
2018-11-02T14:14:08.353Z,10.80
2018-11-02T14:16:36.970Z,10.80
2018-11-02T14:21:33.646Z,10.80
2018-11-02T14:24:01.828Z,10.80
2018-11-02T14:26:30.045Z,10.80
2018-11-02T14:28:58.918Z,10.80
2018-11-02T14:33:56.167Z,10.90
2018-11-02T14:36:24.779Z,10.80
2018-11-02T14:38:53.342Z,10.80
2018-11-02T14:41:21.569Z,10.80
2018-11-02T14:43:49.596Z,10.80
2018-11-02T14:46:17.778Z,10.80
2018-11-02T14:48:45.916Z,10.80
2018-11-02T14:51:14.056Z,10.80
2018-11-02T14:53:42.273Z,10.70
2018-11-02T14:56:11.144Z,10.70
2018-11-02T14:58:39.450Z,10.60
2018-11-02T15:01:07.580Z,10.60
2018-11-02T15:03:35.809Z,10.50
2018-11-02T15:06:04.792Z,10.50
2018-11-02T15:08:33.515Z,10.50
2018-11-02T15:13:29.971Z,10.40
2018-11-02T15:15:58.758Z,10.40
2018-11-02T15:18:27.610Z,10.40
2018-11-02T15:20:55.761Z,10.40
2018-11-02T15:23:23.916Z,10.30
2018-11-02T15:28:21.044Z,10.30
2018-11-02T15:35:45.011Z,10.10
2018-11-02T15:38:13.198Z,10.10
2018-11-02T15:40:41.850Z,10.00
2018-11-02T15:43:09.949Z,10.00
2018-11-02T15:45:38.725Z,9.90
2018-11-02T15:48:06.899Z,9.90
2018-11-02T15:58:00.623Z,9.80
2018-11-02T16:00:28.818Z,9.70
2018-11-02T16:02:57.614Z,9.60
2018-11-02T16:05:26.341Z,9.60
2018-11-02T16:07:54.475Z,9.50
2018-11-02T16:10:23.277Z,9.50
2018-11-02T16:12:51.617Z,9.40
2018-11-02T16:15:20.405Z,9.40
2018-11-02T16:17:49.114Z,9.30
2018-11-02T16:22:45.603Z,9.30
2018-11-02T16:27:42.473Z,9.20
2018-11-02T16:30:11.266Z,9.10
2018-11-02T16:37:35.967Z,9.00
2018-11-02T16:40:05.778Z,8.90
2018-11-02T16:42:33.893Z,8.90
2018-11-02T16:45:02.006Z,8.90
2018-11-02T16:47:30.126Z,8.80
2018-11-02T16:49:58.747Z,8.80
2018-11-02T16:52:27.419Z,8.80
2018-11-02T16:59:52.388Z,8.70
2018-11-02T17:02:21.436Z,8.60
2018-11-02T17:07:18.186Z,8.60
2018-11-02T17:09:46.599Z,8.60
2018-11-02T17:12:14.753Z,8.50
2018-11-02T17:17:12.178Z,8.40
2018-11-02T17:19:40.309Z,8.30
2018-11-02T17:22:08.431Z,8.30
2018-11-02T17:24:36.558Z,8.30
2018-11-02T17:27:04.937Z,8.30
2018-11-02T17:29:33.082Z,8.30
2018-11-02T17:32:01.949Z,8.30
2018-11-02T17:34:30.578Z,8.30
2018-11-02T17:36:58.867Z,8.30
2018-11-02T17:39:27.282Z,8.30
2018-11-02T17:41:55.525Z,8.30
2018-11-02T17:44:23.669Z,8.30
2018-11-02T17:51:48.594Z,8.20
2018-11-02T17:56:46.217Z,8.30
2018-11-02T17:59:14.412Z,8.30
2018-11-02T18:01:42.498Z,8.30
2018-11-02T18:04:11.132Z,8.30
2018-11-02T18:06:39.320Z,8.40
2018-11-02T18:09:09.363Z,8.40
2018-11-02T18:11:37.572Z,8.40
2018-11-02T18:14:06.522Z,8.40
2018-11-02T18:16:34.717Z,8.40
2018-11-02T18:19:02.854Z,8.50
2018-11-02T18:31:23.614Z,8.40
2018-11-02T18:33:52.722Z,8.40
2018-11-02T18:38:48.847Z,8.40
2018-11-02T18:41:17.546Z,8.40
2018-11-02T18:43:45.726Z,8.40
2018-11-02T18:46:14.582Z,8.40
2018-11-02T18:48:43.575Z,8.40
2018-11-02T18:51:11.765Z,8.40
2018-11-02T18:53:39.985Z,8.50
2018-11-02T18:56:09.230Z,8.40
2018-11-02T18:58:37.350Z,8.40
2018-11-02T19:01:05.737Z,8.40
2018-11-02T19:03:33.901Z,8.30
2018-11-02T19:06:02.149Z,8.30
2018-11-02T19:08:30.851Z,8.30
2018-11-02T19:10:59.802Z,8.30
2018-11-02T19:13:28.089Z,8.20
2018-11-02T19:15:57.111Z,8.30
2018-11-02T19:18:25.474Z,8.30
2018-11-02T19:28:17.413Z,8.30
2018-11-02T19:30:45.551Z,8.30
2018-11-02T19:33:13.686Z,8.30
2018-11-02T19:35:41.815Z,8.30
2018-11-02T19:43:05.892Z,8.30
2018-11-02T19:45:34.009Z,8.30
2018-11-02T19:52:59.799Z,8.30
2018-11-02T19:55:28.013Z,8.30
2018-11-02T19:57:56.760Z,8.30
2018-11-02T20:00:24.926Z,8.30
2018-11-02T20:02:53.078Z,8.30
2018-11-02T20:05:21.603Z,8.30
2018-11-02T20:07:49.754Z,8.30
2018-11-02T20:12:47.909Z,8.30
2018-11-02T20:15:16.898Z,8.30
2018-11-02T20:20:14.678Z,8.30
2018-11-02T20:22:42.809Z,8.30
2018-11-02T20:25:14.533Z,8.30
2018-11-02T20:27:43.578Z,8.30
2018-11-02T20:30:13.711Z,8.30
2018-11-02T20:32:42.731Z,8.20
2018-11-02T20:35:11.631Z,8.20
2018-11-02T20:37:40.185Z,8.10
2018-11-02T20:40:11.684Z,8.10
2018-11-02T20:45:07.782Z,8.00
2018-11-02T20:50:11.195Z,8.00
2018-11-02T20:55:08.675Z,8.00
2018-11-02T20:57:38.542Z,8.10
2018-11-02T21:00:10.042Z,8.00
2018-11-02T21:02:38.291Z,7.90
2018-11-02T21:05:07.926Z,7.90
2018-11-02T21:07:36.068Z,7.90
2018-11-02T21:10:06.247Z,8.00
2018-11-02T21:15:03.793Z,8.00
2018-11-02T21:17:32.977Z,8.00
2018-11-02T21:22:30.582Z,8.00
2018-11-02T21:24:59.767Z,8.00
2018-11-02T21:27:28.351Z,7.90
2018-11-02T21:29:56.987Z,8.00
2018-11-02T21:32:25.235Z,8.00
2018-11-02T21:34:54.046Z,8.00
2018-11-02T21:37:22.174Z,8.00
2018-11-02T21:42:18.214Z,8.00
2018-11-02T21:44:46.382Z,8.00
2018-11-02T21:47:14.484Z,8.00
2018-11-02T21:49:42.677Z,8.00
2018-11-02T21:52:11.402Z,8.00
2018-11-02T21:57:08.674Z,8.10
2018-11-02T21:59:37.601Z,8.10
2018-11-02T22:02:05.984Z,8.10
2018-11-02T22:04:34.086Z,8.10
2018-11-02T22:07:02.391Z,8.10
2018-11-02T22:09:31.472Z,8.10
2018-11-02T22:12:00.473Z,8.10
2018-11-02T22:14:29.151Z,8.10
2018-11-02T22:19:26.662Z,8.10
2018-11-02T22:21:55.095Z,8.10
2018-11-02T22:24:23.406Z,8.00
2018-11-02T22:29:20.444Z,8.00
2018-11-02T22:31:48.635Z,8.00
2018-11-02T22:36:44.965Z,8.00
2018-11-02T22:39:13.228Z,8.00
2018-11-02T22:41:42.445Z,8.00
2018-11-02T22:46:38.544Z,8.10
2018-11-02T22:49:06.703Z,8.10
2018-11-02T22:51:34.838Z,8.10
2018-11-02T22:54:03.837Z,8.10
2018-11-02T22:56:32.620Z,8.10
2018-11-02T23:03:59.831Z,8.10
2018-11-02T23:06:29.033Z,8.10
2018-11-02T23:08:57.209Z,8.10
2018-11-02T23:16:21.810Z,8.00
2018-11-02T23:18:50.114Z,8.00
2018-11-02T23:21:18.576Z,8.00
2018-11-02T23:23:46.927Z,8.00
2018-11-02T23:26:15.829Z,8.00
2018-11-02T23:28:43.982Z,8.00
2018-11-02T23:31:12.101Z,8.00
2018-11-02T23:33:41.174Z,8.00
2018-11-02T23:36:09.706Z,8.00
2018-11-02T23:38:37.967Z,8.00
2018-11-02T23:41:06.350Z,7.90
2018-11-02T23:43:35.490Z,7.90
2018-11-02T23:46:04.491Z,7.90
2018-11-02T23:48:33.393Z,7.90
2018-11-02T23:51:01.534Z,7.90
2018-11-02T23:58:26.434Z,7.90
